createdAt,value
2022-08-26T00:02:20.505Z,99791.47
2022-08-26T00:04:49.870Z,99875.22
2022-08-26T00:07:19.411Z,99863.28
2022-08-26T00:09:48.713Z,99758.91
2022-08-26T00:12:19.357Z,99774.75
2022-08-26T00:15:02.245Z,99781.16
2022-08-26T00:17:31.516Z,99871.41
2022-08-26T00:20:00.825Z,99798.19
2022-08-26T00:22:30.137Z,99868.53
2022-08-26T00:24:59.383Z,99833.53
2022-08-26T00:27:28.548Z,99852.94
2022-08-26T00:29:57.792Z,99832.00
2022-08-26T00:32:28.629Z,99830.31
2022-08-26T00:34:57.907Z,99800.78
2022-08-26T00:37:36.505Z,99773.22
2022-08-26T00:40:07.311Z,99806.13
2022-08-26T00:42:36.525Z,99800.81
2022-08-26T00:45:11.585Z,99720.38
2022-08-26T00:47:47.755Z,99877.28
2022-08-26T00:50:20.382Z,99767.50
2022-08-26T00:52:50.895Z,99769.16
2022-08-26T00:55:23.164Z,99801.00
2022-08-26T00:57:53.419Z,99766.97
2022-08-26T01:00:26.665Z,99881.22
2022-08-26T01:02:58.026Z,99789.19
2022-08-26T01:05:27.387Z,99864.34
2022-08-26T01:07:56.718Z,99791.84
2022-08-26T01:10:30.185Z,99861.28
2022-08-26T01:13:02.894Z,99867.47
2022-08-26T01:15:36.656Z,99808.88
2022-08-26T01:18:09.369Z,99810.63
2022-08-26T01:20:47.320Z,99820.41
2022-08-26T01:23:18.789Z,99884.63
2022-08-26T01:25:56.832Z,99829.59
2022-08-26T01:28:30.943Z,99887.84
2022-08-26T01:31:01.526Z,99880.41
2022-08-26T01:33:42.109Z,99790.81
2022-08-26T01:36:13.159Z,99836.84
2022-08-26T01:38:44.838Z,99842.38
2022-08-26T01:41:19.702Z,99902.34
2022-08-26T01:43:56.342Z,99835.75
2022-08-26T01:46:29.767Z,99915.91
2022-08-26T01:49:03.237Z,99804.22
2022-08-26T01:51:38.628Z,99896.06
2022-08-26T01:54:12.101Z,99822.78
2022-08-26T01:56:43.548Z,99805.50
2022-08-26T01:59:16.265Z,99872.28
2022-08-26T02:01:46.569Z,99814.66
2022-08-26T02:04:21.396Z,99839.28
2022-08-26T02:06:51.185Z,99847.50
2022-08-26T02:09:22.750Z,99822.72
2022-08-26T02:11:54.887Z,99849.84
2022-08-26T02:14:26.880Z,99881.22
2022-08-26T02:16:56.624Z,99905.41
2022-08-26T02:19:31.247Z,99911.28
2022-08-26T02:22:03.603Z,99896.91
2022-08-26T02:24:49.496Z,99916.19
2022-08-26T02:27:21.101Z,99932.13
2022-08-26T02:29:54.587Z,99919.97
2022-08-26T02:32:23.761Z,99928.81
2022-08-26T02:34:53.903Z,99926.94
2022-08-26T02:37:23.232Z,99902.84
2022-08-26T02:39:53.956Z,99936.47
2022-08-26T02:42:23.227Z,99941.50
2022-08-26T02:44:52.514Z,99937.34
2022-08-26T02:47:21.782Z,99935.53
2022-08-26T02:49:54.114Z,99938.63
2022-08-26T02:52:23.468Z,99929.19
2022-08-26T02:54:54.353Z,99926.59
2022-08-26T02:57:24.504Z,99935.06
2022-08-26T02:59:53.674Z,99943.22
2022-08-26T03:02:23.627Z,99939.81
2022-08-26T03:04:57.770Z,99921.63
2022-08-26T03:07:31.371Z,99947.97
2022-08-26T03:10:08.148Z,99954.75
2022-08-26T03:12:38.125Z,99951.03
2022-08-26T03:15:17.437Z,99949.38
2022-08-26T03:17:52.072Z,99928.50
2022-08-26T03:20:21.372Z,99954.59
2022-08-26T03:22:51.897Z,99938.19
2022-08-26T03:25:23.522Z,99928.78
2022-08-26T03:27:53.110Z,99946.88
2022-08-26T03:30:44.855Z,99944.50
2022-08-26T03:33:16.239Z,99964.97
2022-08-26T03:35:50.571Z,99951.13
2022-08-26T03:38:21.072Z,99972.53
2022-08-26T03:40:52.767Z,99947.69
2022-08-26T03:43:22.809Z,99941.19
2022-08-26T03:45:53.174Z,99973.50
2022-08-26T03:48:23.431Z,99961.09
2022-08-26T03:50:52.710Z,99944.38
2022-08-26T03:53:22.561Z,99906.06
2022-08-26T03:55:53.305Z,99957.16
2022-08-26T03:58:24.606Z,99885.09
2022-08-26T04:00:55.361Z,99953.53
2022-08-26T04:03:38.884Z,99961.88
2022-08-26T04:06:09.591Z,99937.38
2022-08-26T04:08:38.976Z,99961.09
2022-08-26T04:11:09.813Z,99947.09
2022-08-26T04:13:39.386Z,99956.06
2022-08-26T04:16:09.366Z,99962.50
2022-08-26T04:18:42.093Z,99957.97
2022-08-26T04:21:16.526Z,99957.34
2022-08-26T04:23:47.679Z,99955.09
2022-08-26T04:26:20.127Z,99959.53
2022-08-26T04:28:50.327Z,99958.13
2022-08-26T04:31:20.794Z,99956.94
2022-08-26T04:33:51.492Z,99953.66
2022-08-26T04:36:20.820Z,99953.31
2022-08-26T04:38:51.482Z,99951.44
2022-08-26T04:41:22.675Z,99948.47
2022-08-26T04:43:52.072Z,99937.63
2022-08-26T04:46:24.968Z,99907.38
2022-08-26T04:48:56.546Z,99942.13
2022-08-26T04:51:28.326Z,99934.09
2022-08-26T04:53:58.110Z,99940.34
2022-08-26T04:56:30.730Z,99942.09
2022-08-26T04:59:01.007Z,99941.09
2022-08-26T05:01:31.763Z,99947.69
2022-08-26T05:04:02.058Z,99945.41
2022-08-26T05:06:36.825Z,99949.41
2022-08-26T05:09:06.814Z,99940.59
2022-08-26T05:11:38.798Z,99924.97
2022-08-26T05:14:08.408Z,99946.28
2022-08-26T05:16:40.427Z,99935.25
2022-08-26T05:19:10.180Z,99938.38
2022-08-26T05:21:40.233Z,99933.13
2022-08-26T05:24:09.442Z,99943.53
2022-08-26T05:26:41.085Z,99927.59
2022-08-26T05:29:10.273Z,99942.34
2022-08-26T05:31:40.431Z,99930.72
2022-08-26T05:34:11.229Z,99933.41
2022-08-26T05:36:40.648Z,99916.97
2022-08-26T05:39:10.813Z,99918.97
2022-08-26T05:41:44.892Z,99918.81
2022-08-26T05:44:16.606Z,99931.38
2022-08-26T05:46:45.887Z,99936.69
2022-08-26T05:49:16.384Z,99939.09
2022-08-26T05:51:47.760Z,99920.41
2022-08-26T05:54:21.803Z,99929.38
2022-08-26T05:56:53.285Z,99921.22
2022-08-26T05:59:25.403Z,99927.72
2022-08-26T06:01:56.381Z,99930.59
2022-08-26T06:04:28.565Z,99925.34
2022-08-26T06:06:58.651Z,99922.88
2022-08-26T06:09:28.446Z,99913.13
2022-08-26T06:12:02.270Z,99926.25
2022-08-26T06:14:31.502Z,99944.78
2022-08-26T06:17:01.272Z,99932.81
2022-08-26T06:19:32.825Z,99925.06
2022-08-26T06:22:23.483Z,99935.00
2022-08-26T06:25:18.485Z,99920.91
2022-08-26T06:27:50.034Z,99935.50
2022-08-26T06:30:19.733Z,99861.78
2022-08-26T06:32:55.277Z,99932.56
2022-08-26T06:35:24.502Z,99925.44
2022-08-26T06:37:53.659Z,99905.19
2022-08-26T06:40:23.082Z,99927.06
2022-08-26T06:42:53.927Z,99933.34
2022-08-26T06:45:23.016Z,99929.66
2022-08-26T06:47:53.301Z,99922.16
2022-08-26T06:50:23.658Z,99916.84
2022-08-26T06:52:54.746Z,99906.25
2022-08-26T06:55:27.058Z,99913.34
2022-08-26T06:57:58.846Z,99916.47
2022-08-26T07:00:28.644Z,99912.81
2022-08-26T07:02:57.809Z,99921.00
2022-08-26T07:05:27.417Z,99934.22
2022-08-26T07:07:58.471Z,99935.38
2022-08-26T07:10:28.163Z,99937.38
2022-08-26T07:12:58.908Z,99933.69
2022-08-26T07:15:31.357Z,99922.78
2022-08-26T07:18:00.568Z,99909.59
2022-08-26T07:20:30.204Z,99922.31
2022-08-26T07:23:00.016Z,99912.94
2022-08-26T07:25:31.198Z,99884.63
2022-08-26T07:28:01.962Z,99930.75
2022-08-26T07:30:32.422Z,99865.41
2022-08-26T07:33:01.786Z,99859.28
2022-08-26T07:35:31.634Z,99922.75
2022-08-26T07:38:02.163Z,99891.81
2022-08-26T07:40:31.555Z,99898.69
2022-08-26T07:43:02.387Z,99863.09
2022-08-26T07:45:31.907Z,99891.06
2022-08-26T07:48:01.734Z,99842.97
2022-08-26T07:50:49.425Z,99844.00
2022-08-26T07:53:20.666Z,99883.06
2022-08-26T07:55:50.323Z,99910.69
2022-08-26T07:58:21.757Z,99906.00
2022-08-26T08:00:51.314Z,99909.38
2022-08-26T08:03:23.601Z,99854.97
2022-08-26T08:05:52.806Z,99876.94
2022-08-26T08:08:27.601Z,99889.31
2022-08-26T08:10:58.949Z,99857.75
2022-08-26T08:13:30.811Z,99906.72
2022-08-26T08:16:01.067Z,99886.09
2022-08-26T08:18:30.418Z,99824.81
2022-08-26T08:21:21.177Z,99832.03
2022-08-26T08:23:53.273Z,99827.03
2022-08-26T08:26:22.729Z,99871.78
2022-08-26T08:28:55.530Z,99835.06
2022-08-26T08:31:55.895Z,99840.06
2022-08-26T08:34:15.843Z,99868.31
2022-08-26T08:36:48.005Z,99826.03
2022-08-26T08:39:17.200Z,99793.16
2022-08-26T08:42:06.945Z,99782.84
2022-08-26T08:44:42.461Z,99798.19
2022-08-26T08:47:19.885Z,99820.31
2022-08-26T08:49:51.442Z,99852.13
2022-08-26T08:52:29.372Z,99857.69
2022-08-26T08:54:58.960Z,99850.44
2022-08-26T08:57:40.178Z,99846.03
2022-08-26T09:00:18.686Z,99784.63
2022-08-26T09:02:55.649Z,99815.66
2022-08-26T09:05:26.937Z,99808.13
2022-08-26T09:08:01.495Z,99801.72
2022-08-26T09:10:37.901Z,99833.50
2022-08-26T09:13:13.696Z,99807.81
2022-08-26T09:15:54.972Z,99791.22
2022-08-26T09:18:49.807Z,99836.50
2022-08-26T09:21:20.111Z,99831.63
2022-08-26T09:23:51.347Z,99782.94
2022-08-26T09:26:27.171Z,99771.53
2022-08-26T09:29:01.010Z,99797.06
2022-08-26T09:31:35.334Z,99793.53
2022-08-26T09:34:17.992Z,99828.00
2022-08-26T09:36:50.846Z,99808.94
2022-08-26T09:39:37.643Z,99780.72
2022-08-26T09:42:10.724Z,99841.44
2022-08-26T09:44:58.324Z,99848.75
2022-08-26T09:47:32.158Z,99824.53
2022-08-26T09:50:12.441Z,99842.63
2022-08-26T09:52:42.649Z,99787.50
2022-08-26T09:55:16.711Z,99842.50
2022-08-26T09:57:51.847Z,99807.94
2022-08-26T10:00:31.408Z,99848.63
2022-08-26T10:03:04.318Z,99758.13
2022-08-26T10:05:41.085Z,99800.28
2022-08-26T10:08:24.302Z,99783.09
2022-08-26T10:10:55.782Z,99795.34
2022-08-26T10:13:31.771Z,99852.34
2022-08-26T10:16:13.611Z,99833.88
2022-08-26T10:18:49.374Z,99816.19
2022-08-26T10:21:26.643Z,99813.81
2022-08-26T10:23:59.695Z,99787.53
2022-08-26T10:26:40.831Z,99798.94
2022-08-26T10:29:15.506Z,99855.00
2022-08-26T10:31:51.432Z,99852.31
2022-08-26T10:34:22.683Z,99808.63
2022-08-26T10:37:15.779Z,99831.81
2022-08-26T10:39:53.030Z,99835.72
2022-08-26T10:42:35.627Z,99849.28
2022-08-26T10:45:15.071Z,99786.75
2022-08-26T10:47:52.065Z,99790.13
2022-08-26T10:50:26.771Z,99827.41
2022-08-26T10:53:03.986Z,99800.84
2022-08-26T10:55:40.819Z,99840.63
2022-08-26T10:58:27.558Z,99825.25
2022-08-26T11:01:23.127Z,99781.50
2022-08-26T11:04:00.849Z,99772.94
2022-08-26T11:06:33.306Z,99825.00
2022-08-26T11:09:07.786Z,99821.75
2022-08-26T11:11:54.682Z,99826.22
2022-08-26T11:14:46.168Z,99778.09
2022-08-26T11:18:00.125Z,99827.22
2022-08-26T11:20:36.425Z,99831.66
2022-08-26T11:23:50.465Z,99821.00
2022-08-26T11:26:36.347Z,99835.81
2022-08-26T11:29:13.856Z,99820.78
2022-08-26T11:32:00.520Z,99810.13
2022-08-26T11:34:53.601Z,99830.81
2022-08-26T11:37:28.227Z,99824.56
2022-08-26T11:40:02.858Z,99840.97
2022-08-26T11:42:38.664Z,99767.59
2022-08-26T11:45:20.183Z,99783.28
2022-08-26T11:47:49.664Z,99798.69
2022-08-26T11:50:23.826Z,99762.78
2022-08-26T11:52:56.439Z,99812.34
2022-08-26T11:55:28.160Z,99737.06
2022-08-26T11:58:08.354Z,99816.56
2022-08-26T12:01:01.881Z,99796.22
2022-08-26T12:03:54.360Z,99774.72
2022-08-26T12:06:30.488Z,99825.94
2022-08-26T12:09:02.017Z,99821.59
2022-08-26T12:11:35.548Z,99771.44
2022-08-26T12:14:10.060Z,99797.94
2022-08-26T12:16:41.840Z,99802.53
2022-08-26T12:19:25.300Z,99762.50
2022-08-26T12:22:00.837Z,99803.81
2022-08-26T12:24:31.335Z,99805.00
2022-08-26T12:27:18.881Z,99820.16
2022-08-26T12:30:09.395Z,99770.53
2022-08-26T12:32:57.616Z,99813.28
2022-08-26T12:35:29.609Z,99720.19
2022-08-26T12:37:59.583Z,99741.78
2022-08-26T12:40:41.374Z,99835.50
2022-08-26T12:43:16.406Z,99786.75
2022-08-26T12:45:57.227Z,99814.31
2022-08-26T12:48:29.416Z,99782.72
2022-08-26T12:51:06.987Z,99827.91
2022-08-26T12:53:43.550Z,99740.22
2022-08-26T12:56:39.408Z,99823.91
2022-08-26T12:59:23.592Z,99740.63
2022-08-26T13:01:54.396Z,99840.97
2022-08-26T13:04:39.048Z,99844.81
2022-08-26T13:07:17.033Z,99850.44
2022-08-26T13:09:46.270Z,99847.47
2022-08-26T13:12:26.123Z,99828.31
2022-08-26T13:15:00.827Z,99850.41
2022-08-26T13:17:31.176Z,99840.53
2022-08-26T13:20:04.146Z,99781.09
2022-08-26T13:22:34.022Z,99850.41
2022-08-26T13:25:03.373Z,99825.03
2022-08-26T13:27:33.141Z,99834.78
2022-08-26T13:30:04.328Z,99846.59
2022-08-26T13:32:33.756Z,99831.38
2022-08-26T13:35:03.935Z,99856.78
2022-08-26T13:37:35.697Z,99846.31
2022-08-26T13:40:06.868Z,99837.31
2022-08-26T13:42:36.179Z,99851.97
2022-08-26T13:45:07.827Z,99827.00
2022-08-26T13:47:38.230Z,99863.31
2022-08-26T13:50:08.386Z,99824.22
2022-08-26T13:52:37.800Z,99802.63
2022-08-26T13:55:08.472Z,99776.41
2022-08-26T13:57:37.820Z,99849.31
2022-08-26T14:00:11.241Z,99744.31
2022-08-26T14:02:40.553Z,99849.13
2022-08-26T14:05:10.943Z,99818.50
2022-08-26T14:07:40.104Z,99835.50
2022-08-26T14:10:10.066Z,99834.31
2022-08-26T14:12:42.626Z,99836.63
2022-08-26T14:15:16.787Z,99831.16
2022-08-26T14:17:47.060Z,99853.16
2022-08-26T14:20:18.838Z,99856.44
2022-08-26T14:23:12.693Z,99845.00
2022-08-26T14:25:37.163Z,99847.44
2022-08-26T14:28:06.792Z,99855.56
2022-08-26T14:30:38.862Z,99860.53
2022-08-26T14:33:08.289Z,99852.25
2022-08-26T14:35:37.590Z,99856.50
2022-08-26T14:38:06.770Z,99850.03
2022-08-26T14:40:37.552Z,99859.47
2022-08-26T14:43:10.066Z,99857.38
2022-08-26T14:45:44.108Z,99854.31
2022-08-26T14:48:13.781Z,99850.38
2022-08-26T14:50:42.945Z,99846.47
2022-08-26T14:53:29.110Z,99846.44
2022-08-26T14:55:58.437Z,99848.56
2022-08-26T14:58:33.783Z,99807.28
2022-08-26T15:01:07.248Z,99842.78
2022-08-26T15:03:36.390Z,99846.53
2022-08-26T15:06:05.958Z,99850.84
2022-08-26T15:08:37.068Z,99851.81
2022-08-26T15:11:06.524Z,99836.91
2022-08-26T15:13:36.075Z,99850.25
2022-08-26T15:16:07.258Z,99767.31
2022-08-26T15:18:36.504Z,99854.97
2022-08-26T15:21:07.662Z,99811.66
2022-08-26T15:23:36.907Z,99835.91
2022-08-26T15:26:09.239Z,99854.97
2022-08-26T15:28:39.297Z,99857.16
2022-08-26T15:31:10.136Z,99855.59
2022-08-26T15:33:40.858Z,99852.31
2022-08-26T15:36:11.641Z,99793.59
2022-08-26T15:38:43.075Z,99823.09
2022-08-26T15:41:14.707Z,99745.81
2022-08-26T15:43:43.845Z,99804.44
2022-08-26T15:46:15.052Z,99848.81
2022-08-26T15:48:44.907Z,99864.25
2022-08-26T15:51:23.712Z,99811.59
2022-08-26T15:53:55.867Z,99820.03
2022-08-26T15:56:26.586Z,99817.75
2022-08-26T15:58:56.678Z,99788.00
2022-08-26T16:01:28.304Z,99843.13
2022-08-26T16:03:58.254Z,99841.88
2022-08-26T16:06:30.831Z,99843.25
2022-08-26T16:09:00.168Z,99842.41
2022-08-26T16:11:29.649Z,99834.91
2022-08-26T16:13:58.883Z,99834.91
2022-08-26T16:16:31.333Z,99830.00
2022-08-26T16:19:04.251Z,99817.22
2022-08-26T16:21:36.938Z,99836.19
2022-08-26T16:24:07.362Z,99764.78
2022-08-26T16:26:38.654Z,99759.97
2022-08-26T16:29:12.757Z,99756.66
2022-08-26T16:31:43.456Z,99831.03
2022-08-26T16:34:13.070Z,99827.81
2022-08-26T16:36:42.443Z,99790.41
2022-08-26T16:39:13.523Z,99798.22
2022-08-26T16:41:42.774Z,99759.38
2022-08-26T16:44:12.437Z,99827.50
2022-08-26T16:50:47.763Z,99631.94
2022-08-26T16:53:58.618Z,99811.78
2022-08-26T16:56:34.409Z,99759.47
2022-08-26T16:59:06.823Z,99786.22
2022-08-26T17:01:36.236Z,99739.25
2022-08-26T17:04:07.204Z,99731.69
2022-08-26T17:06:36.498Z,99765.28
2022-08-26T17:09:06.100Z,99714.16
2022-08-26T17:11:35.881Z,99709.31
2022-08-26T17:14:05.142Z,99773.94
2022-08-26T17:16:34.403Z,99775.56
2022-08-26T17:19:04.998Z,99699.56
2022-08-26T17:21:37.922Z,99709.59
2022-08-26T17:24:08.209Z,99761.59
2022-08-26T17:26:38.186Z,99758.84
2022-08-26T17:29:08.805Z,99716.03
2022-08-26T17:31:37.982Z,99769.50
2022-08-26T17:34:07.768Z,99771.47
2022-08-26T17:36:38.469Z,99717.84
2022-08-26T17:39:07.603Z,99711.41
2022-08-26T17:41:36.747Z,99763.50
2022-08-26T17:44:06.996Z,99718.63
2022-08-26T17:46:38.477Z,99704.31
2022-08-26T17:49:08.185Z,99780.31
2022-08-26T17:51:38.849Z,99739.59
2022-08-26T17:54:07.997Z,99684.16
2022-08-26T17:56:37.135Z,99748.50
2022-08-26T17:59:06.420Z,99720.41
2022-08-26T18:01:36.707Z,99737.47
2022-08-26T18:04:06.488Z,99672.00
2022-08-26T18:06:35.797Z,99740.59
2022-08-26T18:09:06.750Z,99695.44
2022-08-26T18:11:36.014Z,99753.41
2022-08-26T18:14:05.567Z,99682.75
2022-08-26T18:16:38.730Z,99645.84
2022-08-26T18:19:08.506Z,99719.94
2022-08-26T18:21:38.100Z,99720.59
2022-08-26T18:24:13.825Z,99640.75
2022-08-26T18:26:49.237Z,99734.63
2022-08-26T18:29:20.173Z,99644.69
2022-08-26T18:31:50.265Z,99693.38
2022-08-26T18:34:20.229Z,99709.59
2022-08-26T18:36:49.681Z,99652.72
2022-08-26T18:39:23.451Z,99651.84
2022-08-26T18:41:54.285Z,99716.94
2022-08-26T18:44:24.949Z,99659.03
2022-08-26T18:46:54.430Z,99714.47
2022-08-26T18:49:23.957Z,99641.97
2022-08-26T18:51:53.420Z,99703.38
2022-08-26T18:54:24.284Z,99625.41
2022-08-26T18:56:53.586Z,99649.47
2022-08-26T18:59:29.482Z,99694.81
2022-08-26T19:01:59.913Z,99604.16
2022-08-26T19:04:29.360Z,99667.88
2022-08-26T19:06:58.614Z,99631.91
2022-08-26T19:09:29.307Z,99569.72
2022-08-26T19:11:58.512Z,99686.56
2022-08-26T19:14:27.907Z,99600.72
2022-08-26T19:16:57.165Z,99617.81
2022-08-26T19:19:26.537Z,99677.84
2022-08-26T19:21:55.737Z,99676.16
2022-08-26T19:24:27.482Z,99642.34
2022-08-26T19:27:01.646Z,99666.66
2022-08-26T19:29:33.255Z,99603.13
2022-08-26T19:32:03.502Z,99592.84
2022-08-26T19:34:32.998Z,99587.25
2022-08-26T19:37:02.931Z,99656.91
2022-08-26T19:39:32.252Z,99602.03
2022-08-26T19:42:02.959Z,99614.81
2022-08-26T19:44:48.922Z,99597.28
2022-08-26T19:47:18.106Z,99546.34
2022-08-26T19:49:47.538Z,99618.06
2022-08-26T19:52:16.700Z,99618.56
2022-08-26T19:54:46.229Z,99625.75
2022-08-26T19:57:17.382Z,99628.34
2022-08-26T19:59:46.950Z,99574.00
2022-08-26T20:02:17.031Z,99617.72
2022-08-26T20:04:46.259Z,99609.66
2022-08-26T20:07:18.940Z,99587.06
2022-08-26T20:09:49.416Z,99607.09
2022-08-26T20:12:20.932Z,99513.28
2022-08-26T20:14:50.064Z,99508.53
2022-08-26T20:17:19.244Z,99495.31
2022-08-26T20:20:05.828Z,99597.13
2022-08-26T20:22:43.972Z,99491.91
2022-08-26T20:25:13.581Z,99587.66
2022-08-26T20:27:44.238Z,99568.50
2022-08-26T20:30:14.502Z,99532.47
2022-08-26T20:32:44.462Z,99513.16
2022-08-26T20:35:15.875Z,99564.91
2022-08-26T20:37:45.191Z,99508.84
2022-08-26T20:40:16.299Z,99515.19
2022-08-26T20:42:47.062Z,99539.69
2022-08-26T20:45:16.323Z,99549.31
2022-08-26T20:47:45.499Z,99511.00
2022-08-26T20:50:14.737Z,99539.19
2022-08-26T20:52:43.958Z,99537.91
2022-08-26T20:55:13.449Z,99507.59
2022-08-26T20:57:43.835Z,99545.75
2022-08-26T21:00:18.520Z,99551.81
2022-08-26T21:02:51.194Z,99516.53
2022-08-26T21:05:21.143Z,99413.91
2022-08-26T21:07:51.847Z,99485.34
2022-08-26T21:10:22.021Z,99462.19
2022-08-26T21:12:52.750Z,99485.44
2022-08-26T21:15:23.453Z,99530.81
2022-08-26T21:17:52.643Z,99461.13
2022-08-26T21:20:21.884Z,99525.13
2022-08-26T21:22:51.026Z,99444.25
2022-08-26T21:25:20.988Z,99505.94
2022-08-26T21:27:50.167Z,99519.69
2022-08-26T21:30:19.401Z,99523.38
2022-08-26T21:32:50.131Z,99509.28
2022-08-26T21:35:19.797Z,99431.56
2022-08-26T21:37:48.948Z,99459.03
2022-08-26T21:40:18.389Z,99495.66
2022-08-26T21:42:48.026Z,99514.03
2022-08-26T21:45:18.732Z,99419.75
2022-08-26T21:47:49.513Z,99497.84
2022-08-26T21:50:18.801Z,99493.22
2022-08-26T21:52:47.953Z,99395.22
2022-08-26T21:55:17.193Z,99373.09
2022-08-26T21:57:46.358Z,99438.34
2022-08-26T22:00:17.348Z,99461.19
2022-08-26T22:02:46.530Z,99472.56
2022-08-26T22:05:17.358Z,99388.63
2022-08-26T22:07:46.652Z,99426.06
2022-08-26T22:10:15.933Z,99475.59
2022-08-26T22:12:45.035Z,99418.78
2022-08-26T22:15:14.904Z,99494.03
2022-08-26T22:17:44.079Z,99430.81
2022-08-26T22:20:16.557Z,99437.75
2022-08-26T22:22:47.512Z,99401.38
2022-08-26T22:25:16.692Z,99407.22
2022-08-26T22:27:45.896Z,99418.44
2022-08-26T22:30:15.642Z,99470.53
2022-08-26T22:32:46.111Z,99411.97
2022-08-26T22:35:28.716Z,99454.34
2022-08-26T22:38:00.813Z,99426.94
2022-08-26T22:40:30.158Z,99395.09
2022-08-26T22:43:00.453Z,99395.41
2022-08-26T22:45:31.781Z,99388.78
2022-08-26T22:48:02.071Z,99459.81
2022-08-26T22:50:31.212Z,99455.56
2022-08-26T22:53:01.802Z,99385.09
2022-08-26T22:55:31.116Z,99388.38
2022-08-26T22:58:00.558Z,99450.81
2022-08-26T23:00:32.018Z,99449.69
2022-08-26T23:03:01.855Z,99447.44
2022-08-26T23:05:31.535Z,99449.69
2022-08-26T23:08:02.247Z,99306.06
2022-08-26T23:10:31.412Z,99386.59
2022-08-26T23:13:01.105Z,99378.16
2022-08-26T23:15:30.320Z,99391.91
2022-08-26T23:17:59.674Z,99368.13
2022-08-26T23:20:30.565Z,99438.66
2022-08-26T23:23:01.830Z,99401.38
2022-08-26T23:25:32.805Z,99355.94
2022-08-26T23:28:03.122Z,99422.91
2022-08-26T23:30:34.296Z,99357.63
2022-08-26T23:33:03.459Z,99418.53
2022-08-26T23:35:31.616Z,99415.47
2022-08-26T23:38:03.972Z,99402.50
2022-08-26T23:40:36.644Z,99400.44
2022-08-26T23:43:08.440Z,99354.16
2022-08-26T23:45:38.065Z,99394.53
2022-08-26T23:48:07.712Z,99381.66
2022-08-26T23:50:56.117Z,99349.22
2022-08-26T23:53:26.886Z,99374.53
2022-08-26T23:55:56.228Z,99395.41
2022-08-26T23:58:25.543Z,99375.00
